sensor_id;sensor_type;location;lat;lon;timestamp;temperature;humidity
2973;DHT22;1496;51.404;7.232;2022-07-23T00:01:59;16.70;1.00
2973;DHT22;1496;51.404;7.232;2022-07-23T00:04:24;16.70;1.00
2973;DHT22;1496;51.404;7.232;2022-07-23T00:06:50;16.60;1.00
2973;DHT22;1496;51.404;7.232;2022-07-23T00:09:15;16.60;1.00
2973;DHT22;1496;51.404;7.232;2022-07-23T00:11:41;16.50;1.00
2973;DHT22;1496;51.404;7.232;2022-07-23T00:14:07;16.60;1.00
2973;DHT22;1496;51.404;7.232;2022-07-23T00:16:32;16.60;1.00
2973;DHT22;1496;51.404;7.232;2022-07-23T00:18:58;16.50;1.00
2973;DHT22;1496;51.404;7.232;2022-07-23T00:21:26;16.40;1.00
2973;DHT22;1496;51.404;7.232;2022-07-23T00:23:52;16.40;1.00
2973;DHT22;1496;51.404;7.232;2022-07-23T00:26:18;16.40;1.00
2973;DHT22;1496;51.404;7.232;2022-07-23T00:28:43;16.40;1.00
2973;DHT22;1496;51.404;7.232;2022-07-23T00:31:09;16.40;1.00
2973;DHT22;1496;51.404;7.232;2022-07-23T00:33:35;16.40;1.00
2973;DHT22;1496;51.404;7.232;2022-07-23T00:36:00;16.30;1.00
2973;DHT22;1496;51.404;7.232;2022-07-23T00:38:26;16.30;1.00
2973;DHT22;1496;51.404;7.232;2022-07-23T00:40:52;16.20;32.50
2973;DHT22;1496;51.404;7.232;2022-07-23T00:43:20;16.30;99.90
2973;DHT22;1496;51.404;7.232;2022-07-23T00:45:46;16.40;99.90
2973;DHT22;1496;51.404;7.232;2022-07-23T00:48:11;16.50;68.70
2973;DHT22;1496;51.404;7.232;2022-07-23T00:50:37;16.50;1.00
2973;DHT22;1496;51.404;7.232;2022-07-23T00:53:04;16.50;1.00
2973;DHT22;1496;51.404;7.232;2022-07-23T00:55:30;16.50;1.00
2973;DHT22;1496;51.404;7.232;2022-07-23T00:57:57;16.50;1.00
2973;DHT22;1496;51.404;7.232;2022-07-23T01:00:24;16.40;1.00
2973;DHT22;1496;51.404;7.232;2022-07-23T01:02:50;16.50;1.00
2973;DHT22;1496;51.404;7.232;2022-07-23T01:05:16;16.50;66.60
2973;DHT22;1496;51.404;7.232;2022-07-23T01:07:43;16.50;1.00
2973;DHT22;1496;51.404;7.232;2022-07-23T01:10:09;16.30;1.00
2973;DHT22;1496;51.404;7.232;2022-07-23T01:12:54;16.30;99.90
2973;DHT22;1496;51.404;7.232;2022-07-23T01:15:20;16.30;99.90
2973;DHT22;1496;51.404;7.232;2022-07-23T01:17:46;16.40;99.90
2973;DHT22;1496;51.404;7.232;2022-07-23T01:20:12;16.40;99.90
2973;DHT22;1496;51.404;7.232;2022-07-23T01:22:38;16.40;99.90
2973;DHT22;1496;51.404;7.232;2022-07-23T01:25:04;16.40;69.70
2973;DHT22;1496;51.404;7.232;2022-07-23T01:27:30;16.50;93.90
2973;DHT22;1496;51.404;7.232;2022-07-23T01:30:03;16.50;95.50
2973;DHT22;1496;51.404;7.232;2022-07-23T01:32:29;16.50;99.90
2973;DHT22;1496;51.404;7.232;2022-07-23T01:34:54;16.40;1.00
2973;DHT22;1496;51.404;7.232;2022-07-23T01:37:20;16.20;99.90
2973;DHT22;1496;51.404;7.232;2022-07-23T01:39:46;16.30;1.00
2973;DHT22;1496;51.404;7.232;2022-07-23T01:42:13;16.30;2.90
2973;DHT22;1496;51.404;7.232;2022-07-23T01:44:38;16.40;99.90
2973;DHT22;1496;51.404;7.232;2022-07-23T01:47:06;16.40;1.00
2973;DHT22;1496;51.404;7.232;2022-07-23T01:49:32;16.40;1.00
2973;DHT22;1496;51.404;7.232;2022-07-23T01:51:58;16.40;99.90
2973;DHT22;1496;51.404;7.232;2022-07-23T01:54:33;16.30;99.90
2973;DHT22;1496;51.404;7.232;2022-07-23T01:57:00;16.30;99.90
2973;DHT22;1496;51.404;7.232;2022-07-23T01:59:27;16.30;1.00
2973;DHT22;1496;51.404;7.232;2022-07-23T02:01:53;16.30;1.00
2973;DHT22;1496;51.404;7.232;2022-07-23T02:04:23;16.30;1.00
2973;DHT22;1496;51.404;7.232;2022-07-23T02:06:50;16.40;1.00
2973;DHT22;1496;51.404;7.232;2022-07-23T02:09:17;16.40;1.00
2973;DHT22;1496;51.404;7.232;2022-07-23T02:11:43;16.40;1.00
2973;DHT22;1496;51.404;7.232;2022-07-23T02:14:09;16.40;99.90
2973;DHT22;1496;51.404;7.232;2022-07-23T02:16:35;16.40;99.90
2973;DHT22;1496;51.404;7.232;2022-07-23T02:19:02;16.40;99.90
2973;DHT22;1496;51.404;7.232;2022-07-23T02:21:28;16.30;99.90
2973;DHT22;1496;51.404;7.232;2022-07-23T02:23:54;16.30;99.90
2973;DHT22;1496;51.404;7.232;2022-07-23T02:26:20;16.20;99.90
2973;DHT22;1496;51.404;7.232;2022-07-23T02:28:46;16.20;1.00
2973;DHT22;1496;51.404;7.232;2022-07-23T02:31:12;16.20;1.00
2973;DHT22;1496;51.404;7.232;2022-07-23T02:33:37;16.20;99.90
2973;DHT22;1496;51.404;7.232;2022-07-23T02:36:03;16.10;1.00
2973;DHT22;1496;51.404;7.232;2022-07-23T02:38:30;16.00;46.50
2973;DHT22;1496;51.404;7.232;2022-07-23T02:40:56;16.00;99.90
2973;DHT22;1496;51.404;7.232;2022-07-23T02:43:21;16.00;1.00
2973;DHT22;1496;51.404;7.232;2022-07-23T02:45:47;16.00;83.90
2973;DHT22;1496;51.404;7.232;2022-07-23T02:48:13;16.00;1.00
2973;DHT22;1496;51.404;7.232;2022-07-23T02:50:42;16.00;1.00
2973;DHT22;1496;51.404;7.232;2022-07-23T02:53:08;15.90;14.50
2973;DHT22;1496;51.404;7.232;2022-07-23T02:55:33;15.80;1.00
2973;DHT22;1496;51.404;7.232;2022-07-23T02:58:01;15.80;1.00
2973;DHT22;1496;51.404;7.232;2022-07-23T03:00:27;15.70;99.90
2973;DHT22;1496;51.404;7.232;2022-07-23T03:02:53;15.70;99.90
2973;DHT22;1496;51.404;7.232;2022-07-23T03:05:19;15.80;99.90
2973;DHT22;1496;51.404;7.232;2022-07-23T03:07:44;15.80;99.90
2973;DHT22;1496;51.404;7.232;2022-07-23T03:10:10;15.80;99.90
2973;DHT22;1496;51.404;7.232;2022-07-23T03:12:36;15.80;99.90
2973;DHT22;1496;51.404;7.232;2022-07-23T03:15:02;15.80;99.90
2973;DHT22;1496;51.404;7.232;2022-07-23T03:17:28;15.80;99.90
2973;DHT22;1496;51.404;7.232;2022-07-23T03:19:54;15.80;99.90
2973;DHT22;1496;51.404;7.232;2022-07-23T03:22:20;15.70;99.90
2973;DHT22;1496;51.404;7.232;2022-07-23T03:24:47;15.70;99.90
2973;DHT22;1496;51.404;7.232;2022-07-23T03:27:30;15.70;99.90
2973;DHT22;1496;51.404;7.232;2022-07-23T03:29:58;15.70;99.90
2973;DHT22;1496;51.404;7.232;2022-07-23T03:32:24;15.50;1.00
2973;DHT22;1496;51.404;7.232;2022-07-23T03:34:50;15.40;60.50
2973;DHT22;1496;51.404;7.232;2022-07-23T03:37:17;15.50;1.00
2973;DHT22;1496;51.404;7.232;2022-07-23T03:39:44;15.50;99.90
2973;DHT22;1496;51.404;7.232;2022-07-23T03:42:10;15.50;99.90
2973;DHT22;1496;51.404;7.232;2022-07-23T03:44:36;15.40;1.00
2973;DHT22;1496;51.404;7.232;2022-07-23T03:47:05;15.30;1.00
2973;DHT22;1496;51.404;7.232;2022-07-23T03:49:31;15.30;99.90
2973;DHT22;1496;51.404;7.232;2022-07-23T03:51:58;15.30;99.90
2973;DHT22;1496;51.404;7.232;2022-07-23T03:54:24;15.30;99.90
2973;DHT22;1496;51.404;7.232;2022-07-23T03:56:50;15.40;99.90
2973;DHT22;1496;51.404;7.232;2022-07-23T03:59:16;15.30;99.90
2973;DHT22;1496;51.404;7.232;2022-07-23T04:01:42;15.40;99.90
2973;DHT22;1496;51.404;7.232;2022-07-23T04:04:07;15.30;99.90
2973;DHT22;1496;51.404;7.232;2022-07-23T04:06:35;15.30;99.90
2973;DHT22;1496;51.404;7.232;2022-07-23T04:09:01;15.30;99.90
2973;DHT22;1496;51.404;7.232;2022-07-23T04:11:28;15.30;99.90
2973;DHT22;1496;51.404;7.232;2022-07-23T04:13:54;15.40;99.90
2973;DHT22;1496;51.404;7.232;2022-07-23T04:16:20;15.40;99.90
2973;DHT22;1496;51.404;7.232;2022-07-23T04:18:46;15.50;99.90
2973;DHT22;1496;51.404;7.232;2022-07-23T04:21:15;15.60;99.90
2973;DHT22;1496;51.404;7.232;2022-07-23T04:23:41;15.70;99.90
2973;DHT22;1496;51.404;7.232;2022-07-23T04:26:07;15.70;99.90
2973;DHT22;1496;51.404;7.232;2022-07-23T04:28:33;15.70;99.90
2973;DHT22;1496;51.404;7.232;2022-07-23T04:31:00;15.70;99.90
2973;DHT22;1496;51.404;7.232;2022-07-23T04:33:26;15.80;99.90
2973;DHT22;1496;51.404;7.232;2022-07-23T04:35:55;15.80;99.90
2973;DHT22;1496;51.404;7.232;2022-07-23T04:38:20;15.90;99.90
2973;DHT22;1496;51.404;7.232;2022-07-23T04:40:48;15.90;99.90
2973;DHT22;1496;51.404;7.232;2022-07-23T04:43:14;15.90;99.90
2973;DHT22;1496;51.404;7.232;2022-07-23T04:45:45;15.90;99.90
2973;DHT22;1496;51.404;7.232;2022-07-23T04:48:11;16.00;99.90
2973;DHT22;1496;51.404;7.232;2022-07-23T04:50:37;16.00;99.90
2973;DHT22;1496;51.404;7.232;2022-07-23T04:53:04;15.90;99.90
2973;DHT22;1496;51.404;7.232;2022-07-23T04:55:30;15.90;99.90
2973;DHT22;1496;51.404;7.232;2022-07-23T04:57:56;15.90;99.90
2973;DHT22;1496;51.404;7.232;2022-07-23T05:00:22;15.90;99.90
2973;DHT22;1496;51.404;7.232;2022-07-23T05:02:48;16.00;99.90
2973;DHT22;1496;51.404;7.232;2022-07-23T05:05:14;15.90;99.90
2973;DHT22;1496;51.404;7.232;2022-07-23T05:07:41;16.00;99.90
2973;DHT22;1496;51.404;7.232;2022-07-23T05:10:07;15.90;99.90
2973;DHT22;1496;51.404;7.232;2022-07-23T05:12:33;16.00;99.90
2973;DHT22;1496;51.404;7.232;2022-07-23T05:14:59;16.00;99.90
2973;DHT22;1496;51.404;7.232;2022-07-23T05:17:25;16.00;99.90
2973;DHT22;1496;51.404;7.232;2022-07-23T05:19:52;16.00;99.90
2973;DHT22;1496;51.404;7.232;2022-07-23T05:22:17;16.00;99.90
2973;DHT22;1496;51.404;7.232;2022-07-23T05:24:43;15.80;99.90
2973;DHT22;1496;51.404;7.232;2022-07-23T05:27:10;15.80;99.90
2973;DHT22;1496;51.404;7.232;2022-07-23T05:29:35;15.80;99.90
2973;DHT22;1496;51.404;7.232;2022-07-23T05:32:01;15.80;99.90
2973;DHT22;1496;51.404;7.232;2022-07-23T05:34:29;15.80;99.90
2973;DHT22;1496;51.404;7.232;2022-07-23T05:36:56;15.80;99.90
2973;DHT22;1496;51.404;7.232;2022-07-23T05:39:22;15.80;99.90
2973;DHT22;1496;51.404;7.232;2022-07-23T05:41:48;15.80;99.90
2973;DHT22;1496;51.404;7.232;2022-07-23T05:44:14;15.90;99.90
2973;DHT22;1496;51.404;7.232;2022-07-23T05:46:42;15.90;99.90
2973;DHT22;1496;51.404;7.232;2022-07-23T05:49:11;15.90;99.90
2973;DHT22;1496;51.404;7.232;2022-07-23T05:52:09;15.90;99.90
2973;DHT22;1496;51.404;7.232;2022-07-23T05:55:01;16.00;99.90
2973;DHT22;1496;51.404;7.232;2022-07-23T05:57:27;16.00;99.90
2973;DHT22;1496;51.404;7.232;2022-07-23T05:59:53;16.00;99.90
2973;DHT22;1496;51.404;7.232;2022-07-23T06:02:18;15.90;99.90
2973;DHT22;1496;51.404;7.232;2022-07-23T06:04:44;15.90;99.90
2973;DHT22;1496;51.404;7.232;2022-07-23T06:07:24;15.90;99.90
2973;DHT22;1496;51.404;7.232;2022-07-23T06:09:51;15.90;99.90
2973;DHT22;1496;51.404;7.232;2022-07-23T06:12:17;15.90;99.90
2973;DHT22;1496;51.404;7.232;2022-07-23T06:14:43;16.00;99.90
2973;DHT22;1496;51.404;7.232;2022-07-23T06:17:09;16.10;99.90
2973;DHT22;1496;51.404;7.232;2022-07-23T06:19:35;16.10;99.90
2973;DHT22;1496;51.404;7.232;2022-07-23T06:22:01;16.10;99.90
2973;DHT22;1496;51.404;7.232;2022-07-23T06:24:28;16.10;99.90
2973;DHT22;1496;51.404;7.232;2022-07-23T06:26:53;16.10;99.90
2973;DHT22;1496;51.404;7.232;2022-07-23T06:29:19;16.10;99.90
2973;DHT22;1496;51.404;7.232;2022-07-23T06:31:45;16.10;99.90
2973;DHT22;1496;51.404;7.232;2022-07-23T06:34:13;16.10;99.90
2973;DHT22;1496;51.404;7.232;2022-07-23T06:36:38;16.00;99.90
2973;DHT22;1496;51.404;7.232;2022-07-23T06:39:05;16.10;99.90
2973;DHT22;1496;51.404;7.232;2022-07-23T06:41:31;16.10;99.90
2973;DHT22;1496;51.404;7.232;2022-07-23T06:43:56;16.10;99.90
2973;DHT22;1496;51.404;7.232;2022-07-23T06:46:22;16.10;99.90
2973;DHT22;1496;51.404;7.232;2022-07-23T06:48:49;16.30;99.90
2973;DHT22;1496;51.404;7.232;2022-07-23T06:51:14;16.30;99.90
2973;DHT22;1496;51.404;7.232;2022-07-23T06:53:40;16.40;99.90
2973;DHT22;1496;51.404;7.232;2022-07-23T06:56:08;16.30;99.90
2973;DHT22;1496;51.404;7.232;2022-07-23T06:58:34;16.40;99.90
2973;DHT22;1496;51.404;7.232;2022-07-23T07:01:00;16.50;99.90
2973;DHT22;1496;51.404;7.232;2022-07-23T07:03:26;16.40;99.90
2973;DHT22;1496;51.404;7.232;2022-07-23T07:05:52;16.40;99.90
2973;DHT22;1496;51.404;7.232;2022-07-23T07:08:18;16.30;99.90
2973;DHT22;1496;51.404;7.232;2022-07-23T07:10:44;16.20;99.90
2973;DHT22;1496;51.404;7.232;2022-07-23T07:13:09;16.20;99.90
2973;DHT22;1496;51.404;7.232;2022-07-23T07:15:35;16.30;99.90
2973;DHT22;1496;51.404;7.232;2022-07-23T07:18:01;16.40;99.90
2973;DHT22;1496;51.404;7.232;2022-07-23T07:20:26;16.40;99.90
2973;DHT22;1496;51.404;7.232;2022-07-23T07:22:52;16.50;99.90
2973;DHT22;1496;51.404;7.232;2022-07-23T07:25:18;16.60;99.90
2973;DHT22;1496;51.404;7.232;2022-07-23T07:27:43;16.70;99.90
2973;DHT22;1496;51.404;7.232;2022-07-23T07:30:11;16.90;99.90
2973;DHT22;1496;51.404;7.232;2022-07-23T07:32:37;17.10;99.90
2973;DHT22;1496;51.404;7.232;2022-07-23T07:35:06;17.30;99.90
2973;DHT22;1496;51.404;7.232;2022-07-23T07:37:32;17.50;99.90
2973;DHT22;1496;51.404;7.232;2022-07-23T07:39:57;17.70;99.90
2973;DHT22;1496;51.404;7.232;2022-07-23T07:42:26;17.30;99.90
2973;DHT22;1496;51.404;7.232;2022-07-23T07:44:52;17.00;99.90
2973;DHT22;1496;51.404;7.232;2022-07-23T07:47:17;17.30;99.90
2973;DHT22;1496;51.404;7.232;2022-07-23T07:49:43;17.30;99.90
2973;DHT22;1496;51.404;7.232;2022-07-23T07:52:09;17.50;99.90
2973;DHT22;1496;51.404;7.232;2022-07-23T07:54:35;17.60;99.90
2973;DHT22;1496;51.404;7.232;2022-07-23T07:57:01;17.70;99.90
2973;DHT22;1496;51.404;7.232;2022-07-23T07:59:26;17.90;99.90
2973;DHT22;1496;51.404;7.232;2022-07-23T08:01:52;18.00;99.90
2973;DHT22;1496;51.404;7.232;2022-07-23T08:04:18;17.90;19.90
2973;DHT22;1496;51.404;7.232;2022-07-23T08:06:44;18.00;1.00
2973;DHT22;1496;51.404;7.232;2022-07-23T08:09:09;18.10;99.90
2973;DHT22;1496;51.404;7.232;2022-07-23T08:11:36;18.00;91.60
2973;DHT22;1496;51.404;7.232;2022-07-23T08:14:01;17.70;1.00
2973;DHT22;1496;51.404;7.232;2022-07-23T08:16:27;17.70;1.00
2973;DHT22;1496;51.404;7.232;2022-07-23T08:18:53;17.70;1.00
2973;DHT22;1496;51.404;7.232;2022-07-23T08:21:18;17.60;1.00
2973;DHT22;1496;51.404;7.232;2022-07-23T08:23:44;17.80;1.00
2973;DHT22;1496;51.404;7.232;2022-07-23T08:26:10;17.90;1.00
2973;DHT22;1496;51.404;7.232;2022-07-23T08:28:36;18.10;1.00
2973;DHT22;1496;51.404;7.232;2022-07-23T08:31:02;18.40;99.90
2973;DHT22;1496;51.404;7.232;2022-07-23T08:33:27;18.80;99.90
2973;DHT22;1496;51.404;7.232;2022-07-23T08:35:54;19.00;99.90
2973;DHT22;1496;51.404;7.232;2022-07-23T08:38:21;18.90;99.90
2973;DHT22;1496;51.404;7.232;2022-07-23T08:40:52;19.00;99.90
2973;DHT22;1496;51.404;7.232;2022-07-23T08:43:21;19.00;99.90
2973;DHT22;1496;51.404;7.232;2022-07-23T08:45:49;19.00;99.90
2973;DHT22;1496;51.404;7.232;2022-07-23T08:48:23;19.10;99.90
2973;DHT22;1496;51.404;7.232;2022-07-23T08:50:53;19.10;99.90
2973;DHT22;1496;51.404;7.232;2022-07-23T08:53:21;19.20;99.90
2973;DHT22;1496;51.404;7.232;2022-07-23T08:55:50;19.40;99.90
2973;DHT22;1496;51.404;7.232;2022-07-23T08:58:16;19.50;99.90
2973;DHT22;1496;51.404;7.232;2022-07-23T09:00:43;19.60;99.90
2973;DHT22;1496;51.404;7.232;2022-07-23T09:03:20;19.80;99.90
2973;DHT22;1496;51.404;7.232;2022-07-23T09:05:52;19.90;99.90
2973;DHT22;1496;51.404;7.232;2022-07-23T09:08:41;20.00;99.90
2973;DHT22;1496;51.404;7.232;2022-07-23T09:11:12;20.10;99.90
2973;DHT22;1496;51.404;7.232;2022-07-23T09:16:12;19.70;99.90
2973;DHT22;1496;51.404;7.232;2022-07-23T09:18:59;19.40;99.90
2973;DHT22;1496;51.404;7.232;2022-07-23T09:21:36;19.20;99.90
2973;DHT22;1496;51.404;7.232;2022-07-23T09:24:04;19.20;99.90
2973;DHT22;1496;51.404;7.232;2022-07-23T09:26:34;19.40;99.90
2973;DHT22;1496;51.404;7.232;2022-07-23T09:29:24;19.50;99.90
2973;DHT22;1496;51.404;7.232;2022-07-23T09:32:02;19.80;99.90
2973;DHT22;1496;51.404;7.232;2022-07-23T09:34:33;20.20;99.90
2973;DHT22;1496;51.404;7.232;2022-07-23T09:37:15;20.40;99.90
2973;DHT22;1496;51.404;7.232;2022-07-23T09:39:42;20.60;99.90
2973;DHT22;1496;51.404;7.232;2022-07-23T09:42:24;20.60;99.90
2973;DHT22;1496;51.404;7.232;2022-07-23T09:44:52;20.50;99.90
2973;DHT22;1496;51.404;7.232;2022-07-23T09:47:20;20.50;99.90
2973;DHT22;1496;51.404;7.232;2022-07-23T09:52:28;20.60;99.90
2973;DHT22;1496;51.404;7.232;2022-07-23T09:55:02;20.70;99.90
2973;DHT22;1496;51.404;7.232;2022-07-23T09:57:29;21.00;99.90
2973;DHT22;1496;51.404;7.232;2022-07-23T09:59:58;21.10;99.90
2973;DHT22;1496;51.404;7.232;2022-07-23T10:02:26;21.20;99.90
2973;DHT22;1496;51.404;7.232;2022-07-23T10:05:13;21.20;99.90
2973;DHT22;1496;51.404;7.232;2022-07-23T10:08:08;21.10;99.90
2973;DHT22;1496;51.404;7.232;2022-07-23T10:11:01;21.10;99.90
2973;DHT22;1496;51.404;7.232;2022-07-23T10:13:47;21.20;99.90
2973;DHT22;1496;51.404;7.232;2022-07-23T10:16:44;21.20;99.90
2973;DHT22;1496;51.404;7.232;2022-07-23T10:19:17;21.30;99.90
2973;DHT22;1496;51.404;7.232;2022-07-23T10:21:49;21.40;99.90
2973;DHT22;1496;51.404;7.232;2022-07-23T10:30:17;21.10;99.90
2973;DHT22;1496;51.404;7.232;2022-07-23T10:33:00;21.10;99.90
2973;DHT22;1496;51.404;7.232;2022-07-23T10:41:02;21.60;99.90
2973;DHT22;1496;51.404;7.232;2022-07-23T10:43:29;21.50;99.90
2973;DHT22;1496;51.404;7.232;2022-07-23T10:45:57;21.50;99.90
2973;DHT22;1496;51.404;7.232;2022-07-23T10:48:41;21.60;99.90
2973;DHT22;1496;51.404;7.232;2022-07-23T10:51:12;21.50;99.90
2973;DHT22;1496;51.404;7.232;2022-07-23T10:54:09;21.60;99.90
2973;DHT22;1496;51.404;7.232;2022-07-23T10:59:21;22.00;99.90
2973;DHT22;1496;51.404;7.232;2022-07-23T11:01:48;22.10;99.90
2973;DHT22;1496;51.404;7.232;2022-07-23T11:04:13;22.10;99.90
2973;DHT22;1496;51.404;7.232;2022-07-23T11:09:43;22.50;99.90
2973;DHT22;1496;51.404;7.232;2022-07-23T11:15:04;22.60;99.90
2973;DHT22;1496;51.404;7.232;2022-07-23T11:17:31;22.80;99.90
2973;DHT22;1496;51.404;7.232;2022-07-23T11:22:39;22.80;99.90
2973;DHT22;1496;51.404;7.232;2022-07-23T11:25:05;22.80;99.90
2973;DHT22;1496;51.404;7.232;2022-07-23T11:27:44;22.70;99.90
2973;DHT22;1496;51.404;7.232;2022-07-23T11:35:36;22.90;99.90
2973;DHT22;1496;51.404;7.232;2022-07-23T11:38:20;23.00;99.90
2973;DHT22;1496;51.404;7.232;2022-07-23T11:40:51;23.00;99.90
2973;DHT22;1496;51.404;7.232;2022-07-23T11:43:18;23.10;99.90
2973;DHT22;1496;51.404;7.232;2022-07-23T11:45:46;23.10;97.20
2973;DHT22;1496;51.404;7.232;2022-07-23T11:48:23;23.10;98.80
2973;DHT22;1496;51.404;7.232;2022-07-23T11:50:51;23.10;98.00
2973;DHT22;1496;51.404;7.232;2022-07-23T11:53:29;23.20;96.40
2973;DHT22;1496;51.404;7.232;2022-07-23T11:56:06;23.20;94.80
2973;DHT22;1496;51.404;7.232;2022-07-23T11:58:32;23.30;91.70
2973;DHT22;1496;51.404;7.232;2022-07-23T12:00:58;23.50;92.10
2973;DHT22;1496;51.404;7.232;2022-07-23T12:03:24;23.60;92.40
2973;DHT22;1496;51.404;7.232;2022-07-23T12:05:49;23.70;94.10
2973;DHT22;1496;51.404;7.232;2022-07-23T12:08:21;23.50;90.60
2973;DHT22;1496;51.404;7.232;2022-07-23T12:10:46;23.60;91.30
2973;DHT22;1496;51.404;7.232;2022-07-23T12:13:14;23.90;89.00
2973;DHT22;1496;51.404;7.232;2022-07-23T12:15:43;24.00;89.80
2973;DHT22;1496;51.404;7.232;2022-07-23T12:18:11;24.00;86.30
2973;DHT22;1496;51.404;7.232;2022-07-23T12:20:41;23.90;78.60
2973;DHT22;1496;51.404;7.232;2022-07-23T12:23:09;24.00;74.10
2973;DHT22;1496;51.404;7.232;2022-07-23T12:25:37;23.80;73.70
2973;DHT22;1496;51.404;7.232;2022-07-23T12:28:17;23.80;68.90
2973;DHT22;1496;51.404;7.232;2022-07-23T12:30:55;23.80;68.90
2973;DHT22;1496;51.404;7.232;2022-07-23T12:35:49;23.70;69.20
2973;DHT22;1496;51.404;7.232;2022-07-23T12:38:17;23.80;65.70
2973;DHT22;1496;51.404;7.232;2022-07-23T12:40:49;23.80;66.20
2973;DHT22;1496;51.404;7.232;2022-07-23T12:48:32;23.90;59.60
2973;DHT22;1496;51.404;7.232;2022-07-23T12:51:08;23.90;56.00
2973;DHT22;1496;51.404;7.232;2022-07-23T12:53:44;24.00;55.00
2973;DHT22;1496;51.404;7.232;2022-07-23T12:56:18;24.00;51.90
2973;DHT22;1496;51.404;7.232;2022-07-23T12:58:48;24.00;47.60
2973;DHT22;1496;51.404;7.232;2022-07-23T13:06:30;24.20;51.80
2973;DHT22;1496;51.404;7.232;2022-07-23T13:08:56;24.10;52.70
2973;DHT22;1496;51.404;7.232;2022-07-23T13:11:22;24.10;50.50
2973;DHT22;1496;51.404;7.232;2022-07-23T13:13:47;23.70;46.60
2973;DHT22;1496;51.404;7.232;2022-07-23T13:16:13;23.60;45.60
2973;DHT22;1496;51.404;7.232;2022-07-23T13:18:38;23.50;45.00
2973;DHT22;1496;51.404;7.232;2022-07-23T13:21:04;23.80;48.20
2973;DHT22;1496;51.404;7.232;2022-07-23T13:23:30;24.10;45.90
2973;DHT22;1496;51.404;7.232;2022-07-23T13:25:56;24.20;45.20
2973;DHT22;1496;51.404;7.232;2022-07-23T13:28:22;24.30;44.10
2973;DHT22;1496;51.404;7.232;2022-07-23T13:30:50;24.40;46.00
2973;DHT22;1496;51.404;7.232;2022-07-23T13:33:20;24.40;45.50
2973;DHT22;1496;51.404;7.232;2022-07-23T13:35:46;24.40;42.50
2973;DHT22;1496;51.404;7.232;2022-07-23T13:38:13;24.30;41.10
2973;DHT22;1496;51.404;7.232;2022-07-23T13:40:41;24.30;38.90
2973;DHT22;1496;51.404;7.232;2022-07-23T13:43:09;24.50;44.80
2973;DHT22;1496;51.404;7.232;2022-07-23T13:45:35;24.50;41.40
2973;DHT22;1496;51.404;7.232;2022-07-23T13:48:01;24.40;39.00
2973;DHT22;1496;51.404;7.232;2022-07-23T13:50:26;24.30;37.70
2973;DHT22;1496;51.404;7.232;2022-07-23T13:52:52;24.30;37.20
2973;DHT22;1496;51.404;7.232;2022-07-23T13:55:21;24.50;38.20
2973;DHT22;1496;51.404;7.232;2022-07-23T13:57:46;24.60;40.50
2973;DHT22;1496;51.404;7.232;2022-07-23T14:00:13;24.30;35.60
2973;DHT22;1496;51.404;7.232;2022-07-23T14:02:40;24.40;35.40
2973;DHT22;1496;51.404;7.232;2022-07-23T14:05:08;24.50;36.30
2973;DHT22;1496;51.404;7.232;2022-07-23T14:07:35;24.60;35.80
2973;DHT22;1496;51.404;7.232;2022-07-23T14:10:02;24.60;32.40
2973;DHT22;1496;51.404;7.232;2022-07-23T14:12:28;24.70;32.30
2973;DHT22;1496;51.404;7.232;2022-07-23T14:14:54;24.80;32.60
2973;DHT22;1496;51.404;7.232;2022-07-23T14:17:22;24.80;32.80
2973;DHT22;1496;51.404;7.232;2022-07-23T14:19:48;24.70;29.50
2973;DHT22;1496;51.404;7.232;2022-07-23T14:25:03;24.70;21.10
2973;DHT22;1496;51.404;7.232;2022-07-23T14:27:29;24.80;31.00
2973;DHT22;1496;51.404;7.232;2022-07-23T14:29:55;24.90;29.10
2973;DHT22;1496;51.404;7.232;2022-07-23T14:32:21;24.80;28.00
2973;DHT22;1496;51.404;7.232;2022-07-23T14:34:48;24.70;28.00
2973;DHT22;1496;51.404;7.232;2022-07-23T14:37:14;24.70;27.90
2973;DHT22;1496;51.404;7.232;2022-07-23T14:39:41;24.60;25.70
2973;DHT22;1496;51.404;7.232;2022-07-23T14:42:07;24.70;27.30
2973;DHT22;1496;51.404;7.232;2022-07-23T14:44:34;24.70;25.00
2973;DHT22;1496;51.404;7.232;2022-07-23T14:47:00;24.70;25.80
2973;DHT22;1496;51.404;7.232;2022-07-23T14:49:33;24.50;23.80
2973;DHT22;1496;51.404;7.232;2022-07-23T14:51:59;24.40;25.20
2973;DHT22;1496;51.404;7.232;2022-07-23T14:54:26;24.40;23.50
2973;DHT22;1496;51.404;7.232;2022-07-23T14:56:56;24.40;29.80
2973;DHT22;1496;51.404;7.232;2022-07-23T14:59:22;24.60;23.10
2973;DHT22;1496;51.404;7.232;2022-07-23T15:01:49;24.60;20.80
2973;DHT22;1496;51.404;7.232;2022-07-23T15:04:14;24.50;20.20
2973;DHT22;1496;51.404;7.232;2022-07-23T15:06:40;24.30;16.90
2973;DHT22;1496;51.404;7.232;2022-07-23T15:09:06;24.30;18.40
2973;DHT22;1496;51.404;7.232;2022-07-23T15:11:35;24.30;18.70
2973;DHT22;1496;51.404;7.232;2022-07-23T15:14:04;24.20;15.40
2973;DHT22;1496;51.404;7.232;2022-07-23T15:16:30;24.10;15.10
2973;DHT22;1496;51.404;7.232;2022-07-23T15:18:57;23.90;15.80
2973;DHT22;1496;51.404;7.232;2022-07-23T15:21:26;23.90;13.30
2973;DHT22;1496;51.404;7.232;2022-07-23T15:23:54;23.90;14.60
2973;DHT22;1496;51.404;7.232;2022-07-23T15:26:20;23.90;13.80
2973;DHT22;1496;51.404;7.232;2022-07-23T15:28:48;24.10;17.70
2973;DHT22;1496;51.404;7.232;2022-07-23T15:31:14;24.10;14.30
2973;DHT22;1496;51.404;7.232;2022-07-23T15:33:39;24.00;14.30
2973;DHT22;1496;51.404;7.232;2022-07-23T15:36:05;24.10;15.70
2973;DHT22;1496;51.404;7.232;2022-07-23T15:38:31;24.20;15.40
2973;DHT22;1496;51.404;7.232;2022-07-23T15:40:57;24.20;16.50
2973;DHT22;1496;51.404;7.232;2022-07-23T15:43:24;24.00;13.70
2973;DHT22;1496;51.404;7.232;2022-07-23T15:45:51;24.00;13.50
2973;DHT22;1496;51.404;7.232;2022-07-23T15:48:18;23.80;11.70
2973;DHT22;1496;51.404;7.232;2022-07-23T15:50:44;23.70;10.60
2973;DHT22;1496;51.404;7.232;2022-07-23T15:53:10;23.60;12.20
2973;DHT22;1496;51.404;7.232;2022-07-23T15:55:36;23.60;10.50
2973;DHT22;1496;51.404;7.232;2022-07-23T15:58:02;23.50;8.10
2973;DHT22;1496;51.404;7.232;2022-07-23T16:00:34;23.60;8.70
2973;DHT22;1496;51.404;7.232;2022-07-23T16:02:59;23.60;8.10
2973;DHT22;1496;51.404;7.232;2022-07-23T16:08:21;23.50;6.50
2973;DHT22;1496;51.404;7.232;2022-07-23T16:10:47;23.60;6.50
2973;DHT22;1496;51.404;7.232;2022-07-23T16:13:13;23.60;7.10
2973;DHT22;1496;51.404;7.232;2022-07-23T16:15:40;23.60;6.20
2973;DHT22;1496;51.404;7.232;2022-07-23T16:18:07;23.60;6.10
2973;DHT22;1496;51.404;7.232;2022-07-23T16:20:35;23.50;5.40
2973;DHT22;1496;51.404;7.232;2022-07-23T16:23:01;23.40;3.80
2973;DHT22;1496;51.404;7.232;2022-07-23T16:25:27;23.40;6.10
2973;DHT22;1496;51.404;7.232;2022-07-23T16:27:53;23.40;3.30
2973;DHT22;1496;51.404;7.232;2022-07-23T16:30:18;23.30;4.00
2973;DHT22;1496;51.404;7.232;2022-07-23T16:32:44;23.30;4.90
2973;DHT22;1496;51.404;7.232;2022-07-23T16:35:11;23.30;4.50
2973;DHT22;1496;51.404;7.232;2022-07-23T16:37:38;23.30;4.00
2973;DHT22;1496;51.404;7.232;2022-07-23T16:40:08;23.30;4.80
2973;DHT22;1496;51.404;7.232;2022-07-23T16:42:34;23.30;4.20
2973;DHT22;1496;51.404;7.232;2022-07-23T16:45:01;23.30;4.50
2973;DHT22;1496;51.404;7.232;2022-07-23T16:47:27;23.20;4.60
2973;DHT22;1496;51.404;7.232;2022-07-23T16:49:53;23.20;5.60
2973;DHT22;1496;51.404;7.232;2022-07-23T16:52:18;23.10;4.80
2973;DHT22;1496;51.404;7.232;2022-07-23T16:54:57;23.10;3.60
2973;DHT22;1496;51.404;7.232;2022-07-23T16:57:23;23.20;3.70
2973;DHT22;1496;51.404;7.232;2022-07-23T16:59:49;23.20;2.70
2973;DHT22;1496;51.404;7.232;2022-07-23T17:02:15;23.20;2.60